sensor_id;sensor_type;location;lat;lon;timestamp;P1;durP1;ratioP1;P2;durP2;ratioP2
47758;SDS011;33520;55.122;35.582;2022-10-13T00:00:10;4.95;;;1.65;;
47758;SDS011;33520;55.122;35.582;2022-10-13T00:02:39;3.95;;;1.48;;
47758;SDS011;33520;55.122;35.582;2022-10-13T00:05:06;2.10;;;1.20;;
47758;SDS011;33520;55.122;35.582;2022-10-13T00:07:32;3.75;;;1.38;;
47758;SDS011;33520;55.122;35.582;2022-10-13T00:09:59;3.47;;;1.60;;
47758;SDS011;33520;55.122;35.582;2022-10-13T00:12:25;5.32;;;1.58;;
47758;SDS011;33520;55.122;35.582;2022-10-13T00:14:51;2.90;;;1.20;;
47758;SDS011;33520;55.122;35.582;2022-10-13T00:17:17;3.30;;;1.38;;
47758;SDS011;33520;55.122;35.582;2022-10-13T00:19:44;4.95;;;1.08;;
47758;SDS011;33520;55.122;35.582;2022-10-13T00:22:10;2.17;;;1.10;;
47758;SDS011;33520;55.122;35.582;2022-10-13T00:24:36;4.57;;;1.30;;
47758;SDS011;33520;55.122;35.582;2022-10-13T00:29:29;3.08;;;1.20;;
47758;SDS011;33520;55.122;35.582;2022-10-13T00:31:55;4.63;;;1.65;;
47758;SDS011;33520;55.122;35.582;2022-10-13T00:34:21;3.80;;;1.42;;
47758;SDS011;33520;55.122;35.582;2022-10-13T00:36:48;3.55;;;1.27;;
47758;SDS011;33520;55.122;35.582;2022-10-13T00:39:14;2.08;;;1.20;;
47758;SDS011;33520;55.122;35.582;2022-10-13T00:41:40;3.58;;;1.35;;
47758;SDS011;33520;55.122;35.582;2022-10-13T00:47:10;1.92;;;1.00;;
47758;SDS011;33520;55.122;35.582;2022-10-13T00:49:37;2.45;;;0.90;;
47758;SDS011;33520;55.122;35.582;2022-10-13T00:52:04;4.63;;;1.35;;
47758;SDS011;33520;55.122;35.582;2022-10-13T00:56:56;2.65;;;1.25;;
47758;SDS011;33520;55.122;35.582;2022-10-13T00:59:23;3.17;;;1.58;;
47758;SDS011;33520;55.122;35.582;2022-10-13T01:01:54;2.78;;;1.27;;
47758;SDS011;33520;55.122;35.582;2022-10-13T01:04:21;2.60;;;1.10;;
47758;SDS011;33520;55.122;35.582;2022-10-13T01:06:48;4.10;;;1.00;;
47758;SDS011;33520;55.122;35.582;2022-10-13T01:09:14;2.60;;;1.48;;
47758;SDS011;33520;55.122;35.582;2022-10-13T01:14:31;3.30;;;1.00;;
47758;SDS011;33520;55.122;35.582;2022-10-13T01:17:11;2.53;;;1.20;;
47758;SDS011;33520;55.122;35.582;2022-10-13T01:22:28;3.85;;;1.35;;
47758;SDS011;33520;55.122;35.582;2022-10-13T01:25:12;4.68;;;1.52;;
47758;SDS011;33520;55.122;35.582;2022-10-13T01:28:24;2.72;;;1.08;;
47758;SDS011;33520;55.122;35.582;2022-10-13T01:31:23;3.03;;;1.30;;
47758;SDS011;33520;55.122;35.582;2022-10-13T01:34:09;4.85;;;1.13;;
47758;SDS011;33520;55.122;35.582;2022-10-13T01:39:13;2.55;;;0.95;;
47758;SDS011;33520;55.122;35.582;2022-10-13T01:41:53;2.63;;;1.17;;
47758;SDS011;33520;55.122;35.582;2022-10-13T01:44:26;5.95;;;1.38;;
47758;SDS011;33520;55.122;35.582;2022-10-13T01:46:55;5.20;;;1.20;;
47758;SDS011;33520;55.122;35.582;2022-10-13T01:49:23;5.78;;;0.93;;
47758;SDS011;33520;55.122;35.582;2022-10-13T01:51:52;2.33;;;0.85;;
47758;SDS011;33520;55.122;35.582;2022-10-13T01:54:19;4.05;;;1.23;;
47758;SDS011;33520;55.122;35.582;2022-10-13T01:56:52;1.55;;;0.88;;
47758;SDS011;33520;55.122;35.582;2022-10-13T01:59:19;2.30;;;1.20;;
47758;SDS011;33520;55.122;35.582;2022-10-13T02:04:22;3.20;;;1.30;;
47758;SDS011;33520;55.122;35.582;2022-10-13T02:07:04;3.55;;;1.30;;
47758;SDS011;33520;55.122;35.582;2022-10-13T02:12:33;3.03;;;0.90;;
47758;SDS011;33520;55.122;35.582;2022-10-13T02:15:04;3.35;;;0.98;;
47758;SDS011;33520;55.122;35.582;2022-10-13T02:17:35;2.65;;;1.02;;
47758;SDS011;33520;55.122;35.582;2022-10-13T02:20:03;2.10;;;0.95;;
47758;SDS011;33520;55.122;35.582;2022-10-13T02:22:33;3.28;;;1.13;;
47758;SDS011;33520;55.122;35.582;2022-10-13T02:25:03;5.60;;;1.00;;
47758;SDS011;33520;55.122;35.582;2022-10-13T02:27:30;2.25;;;1.20;;
47758;SDS011;33520;55.122;35.582;2022-10-13T02:29:56;3.00;;;1.27;;
47758;SDS011;33520;55.122;35.582;2022-10-13T02:32:27;4.60;;;1.30;;
47758;SDS011;33520;55.122;35.582;2022-10-13T02:34:54;3.45;;;1.10;;
47758;SDS011;33520;55.122;35.582;2022-10-13T02:37:20;2.10;;;0.88;;
47758;SDS011;33520;55.122;35.582;2022-10-13T02:39:46;2.53;;;0.90;;
47758;SDS011;33520;55.122;35.582;2022-10-13T02:42:15;1.75;;;1.00;;
47758;SDS011;33520;55.122;35.582;2022-10-13T02:44:42;2.33;;;1.45;;
47758;SDS011;33520;55.122;35.582;2022-10-13T02:47:08;2.22;;;1.00;;
47758;SDS011;33520;55.122;35.582;2022-10-13T02:49:34;3.92;;;1.30;;
47758;SDS011;33520;55.122;35.582;2022-10-13T02:52:01;3.30;;;1.10;;
47758;SDS011;33520;55.122;35.582;2022-10-13T02:54:27;3.53;;;1.23;;
47758;SDS011;33520;55.122;35.582;2022-10-13T02:56:53;2.67;;;1.00;;
47758;SDS011;33520;55.122;35.582;2022-10-13T02:59:19;4.20;;;1.20;;
47758;SDS011;33520;55.122;35.582;2022-10-13T03:01:46;3.33;;;1.27;;
47758;SDS011;33520;55.122;35.582;2022-10-13T03:04:12;2.90;;;1.05;;
47758;SDS011;33520;55.122;35.582;2022-10-13T03:06:38;12.27;;;1.10;;
47758;SDS011;33520;55.122;35.582;2022-10-13T03:09:06;3.45;;;1.17;;
47758;SDS011;33520;55.122;35.582;2022-10-13T03:11:34;3.88;;;1.05;;
47758;SDS011;33520;55.122;35.582;2022-10-13T03:14:00;2.55;;;1.38;;
47758;SDS011;33520;55.122;35.582;2022-10-13T03:16:26;3.38;;;1.70;;
47758;SDS011;33520;55.122;35.582;2022-10-13T03:18:53;9.43;;;1.20;;
47758;SDS011;33520;55.122;35.582;2022-10-13T03:21:19;1.33;;;0.98;;
47758;SDS011;33520;55.122;35.582;2022-10-13T03:23:45;3.90;;;1.60;;
47758;SDS011;33520;55.122;35.582;2022-10-13T03:26:11;1.92;;;0.98;;
47758;SDS011;33520;55.122;35.582;2022-10-13T03:28:37;4.65;;;1.20;;
47758;SDS011;33520;55.122;35.582;2022-10-13T03:31:05;2.20;;;1.20;;
47758;SDS011;33520;55.122;35.582;2022-10-13T03:33:32;5.25;;;1.70;;
47758;SDS011;33520;55.122;35.582;2022-10-13T03:35:59;3.03;;;1.30;;
47758;SDS011;33520;55.122;35.582;2022-10-13T03:38:27;2.53;;;1.10;;
47758;SDS011;33520;55.122;35.582;2022-10-13T03:40:54;6.35;;;1.80;;
47758;SDS011;33520;55.122;35.582;2022-10-13T03:45:56;1.88;;;1.10;;
47758;SDS011;33520;55.122;35.582;2022-10-13T03:48:23;3.63;;;1.33;;
47758;SDS011;33520;55.122;35.582;2022-10-13T03:53:16;1.77;;;1.20;;
47758;SDS011;33520;55.122;35.582;2022-10-13T03:55:48;3.30;;;1.17;;
47758;SDS011;33520;55.122;35.582;2022-10-13T03:58:18;4.15;;;1.55;;
47758;SDS011;33520;55.122;35.582;2022-10-13T04:00:47;7.03;;;1.92;;
47758;SDS011;33520;55.122;35.582;2022-10-13T04:03:13;7.18;;;1.45;;
47758;SDS011;33520;55.122;35.582;2022-10-13T04:05:40;5.55;;;1.60;;
47758;SDS011;33520;55.122;35.582;2022-10-13T04:08:06;4.22;;;1.80;;
47758;SDS011;33520;55.122;35.582;2022-10-13T04:10:33;2.70;;;1.30;;
47758;SDS011;33520;55.122;35.582;2022-10-13T04:13:00;8.95;;;1.50;;
47758;SDS011;33520;55.122;35.582;2022-10-13T04:15:26;3.40;;;1.33;;
47758;SDS011;33520;55.122;35.582;2022-10-13T04:17:52;2.60;;;1.52;;
47758;SDS011;33520;55.122;35.582;2022-10-13T04:20:18;3.50;;;1.65;;
47758;SDS011;33520;55.122;35.582;2022-10-13T04:22:44;1.92;;;1.25;;
47758;SDS011;33520;55.122;35.582;2022-10-13T04:25:11;4.57;;;1.40;;
47758;SDS011;33520;55.122;35.582;2022-10-13T04:27:37;3.88;;;1.60;;
47758;SDS011;33520;55.122;35.582;2022-10-13T04:30:04;3.78;;;1.45;;
47758;SDS011;33520;55.122;35.582;2022-10-13T04:32:31;4.00;;;1.52;;
47758;SDS011;33520;55.122;35.582;2022-10-13T04:35:01;15.80;;;1.75;;
47758;SDS011;33520;55.122;35.582;2022-10-13T04:37:28;3.20;;;1.30;;
47758;SDS011;33520;55.122;35.582;2022-10-13T04:39:54;4.82;;;1.23;;
47758;SDS011;33520;55.122;35.582;2022-10-13T04:42:20;2.63;;;1.50;;
47758;SDS011;33520;55.122;35.582;2022-10-13T04:44:46;5.82;;;1.17;;
47758;SDS011;33520;55.122;35.582;2022-10-13T04:47:16;2.25;;;1.30;;
47758;SDS011;33520;55.122;35.582;2022-10-13T04:49:42;5.45;;;1.38;;
47758;SDS011;33520;55.122;35.582;2022-10-13T04:52:09;2.28;;;1.40;;
47758;SDS011;33520;55.122;35.582;2022-10-13T04:54:35;3.13;;;1.23;;
47758;SDS011;33520;55.122;35.582;2022-10-13T04:57:01;8.05;;;1.60;;
47758;SDS011;33520;55.122;35.582;2022-10-13T04:59:27;2.72;;;1.42;;
47758;SDS011;33520;55.122;35.582;2022-10-13T05:01:54;5.50;;;1.83;;
47758;SDS011;33520;55.122;35.582;2022-10-13T05:04:20;3.40;;;1.48;;
47758;SDS011;33520;55.122;35.582;2022-10-13T05:06:46;5.65;;;1.23;;
47758;SDS011;33520;55.122;35.582;2022-10-13T05:09:13;2.58;;;1.35;;
47758;SDS011;33520;55.122;35.582;2022-10-13T05:11:42;2.33;;;0.98;;
47758;SDS011;33520;55.122;35.582;2022-10-13T05:16:35;1.85;;;1.10;;
47758;SDS011;33520;55.122;35.582;2022-10-13T05:19:02;3.17;;;1.38;;
47758;SDS011;33520;55.122;35.582;2022-10-13T05:21:29;2.60;;;1.10;;
47758;SDS011;33520;55.122;35.582;2022-10-13T05:23:56;4.40;;;1.38;;
47758;SDS011;33520;55.122;35.582;2022-10-13T05:26:24;2.55;;;1.30;;
47758;SDS011;33520;55.122;35.582;2022-10-13T05:28:57;2.65;;;1.20;;
47758;SDS011;33520;55.122;35.582;2022-10-13T05:31:28;6.15;;;1.55;;
47758;SDS011;33520;55.122;35.582;2022-10-13T05:33:56;5.28;;;1.15;;
47758;SDS011;33520;55.122;35.582;2022-10-13T05:36:23;2.55;;;1.30;;
47758;SDS011;33520;55.122;35.582;2022-10-13T05:38:56;2.65;;;1.13;;
47758;SDS011;33520;55.122;35.582;2022-10-13T05:41:25;2.13;;;1.10;;
47758;SDS011;33520;55.122;35.582;2022-10-13T05:43:55;4.05;;;1.75;;
47758;SDS011;33520;55.122;35.582;2022-10-13T05:46:23;3.35;;;1.23;;
47758;SDS011;33520;55.122;35.582;2022-10-13T05:48:50;2.97;;;1.27;;
47758;SDS011;33520;55.122;35.582;2022-10-13T05:51:18;2.45;;;1.10;;
47758;SDS011;33520;55.122;35.582;2022-10-13T05:53:51;2.42;;;1.25;;
47758;SDS011;33520;55.122;35.582;2022-10-13T05:56:26;1.98;;;1.27;;
47758;SDS011;33520;55.122;35.582;2022-10-13T05:58:58;2.47;;;1.17;;
47758;SDS011;33520;55.122;35.582;2022-10-13T06:01:26;2.13;;;1.10;;
47758;SDS011;33520;55.122;35.582;2022-10-13T06:03:55;1.45;;;0.90;;
47758;SDS011;33520;55.122;35.582;2022-10-13T06:06:25;2.72;;;0.98;;
47758;SDS011;33520;55.122;35.582;2022-10-13T06:08:51;1.48;;;0.90;;
47758;SDS011;33520;55.122;35.582;2022-10-13T06:11:17;1.52;;;1.10;;
47758;SDS011;33520;55.122;35.582;2022-10-13T06:13:43;2.30;;;0.98;;
47758;SDS011;33520;55.122;35.582;2022-10-13T06:16:09;2.35;;;1.40;;
47758;SDS011;33520;55.122;35.582;2022-10-13T06:18:35;3.10;;;1.25;;
47758;SDS011;33520;55.122;35.582;2022-10-13T06:21:02;5.05;;;1.25;;
47758;SDS011;33520;55.122;35.582;2022-10-13T06:23:28;1.70;;;1.10;;
47758;SDS011;33520;55.122;35.582;2022-10-13T06:25:54;5.30;;;1.20;;
47758;SDS011;33520;55.122;35.582;2022-10-13T06:28:21;1.63;;;1.00;;
47758;SDS011;33520;55.122;35.582;2022-10-13T06:30:47;2.90;;;1.08;;
47758;SDS011;33520;55.122;35.582;2022-10-13T06:33:21;2.00;;;1.20;;
47758;SDS011;33520;55.122;35.582;2022-10-13T06:35:49;1.58;;;1.00;;
47758;SDS011;33520;55.122;35.582;2022-10-13T06:38:16;3.20;;;1.10;;
47758;SDS011;33520;55.122;35.582;2022-10-13T06:40:47;2.00;;;1.00;;
47758;SDS011;33520;55.122;35.582;2022-10-13T06:45:40;1.50;;;1.30;;
47758;SDS011;33520;55.122;35.582;2022-10-13T06:50:33;1.10;;;0.80;;
47758;SDS011;33520;55.122;35.582;2022-10-13T06:52:59;2.33;;;1.20;;
47758;SDS011;33520;55.122;35.582;2022-10-13T06:55:25;1.08;;;0.90;;
47758;SDS011;33520;55.122;35.582;2022-10-13T06:57:51;1.33;;;0.80;;
47758;SDS011;33520;55.122;35.582;2022-10-13T07:00:18;2.90;;;1.00;;
47758;SDS011;33520;55.122;35.582;2022-10-13T07:02:48;2.15;;;0.82;;
47758;SDS011;33520;55.122;35.582;2022-10-13T07:05:15;1.38;;;0.90;;
47758;SDS011;33520;55.122;35.582;2022-10-13T07:07:44;1.73;;;0.98;;
47758;SDS011;33520;55.122;35.582;2022-10-13T07:10:10;1.15;;;1.02;;
47758;SDS011;33520;55.122;35.582;2022-10-13T07:12:36;3.92;;;0.98;;
47758;SDS011;33520;55.122;35.582;2022-10-13T07:15:03;1.77;;;1.13;;
47758;SDS011;33520;55.122;35.582;2022-10-13T07:17:29;3.05;;;0.93;;
47758;SDS011;33520;55.122;35.582;2022-10-13T07:19:55;0.85;;;0.70;;
47758;SDS011;33520;55.122;35.582;2022-10-13T07:22:21;2.35;;;1.00;;
47758;SDS011;33520;55.122;35.582;2022-10-13T07:24:48;1.67;;;1.00;;
47758;SDS011;33520;55.122;35.582;2022-10-13T07:27:14;1.52;;;0.98;;
47758;SDS011;33520;55.122;35.582;2022-10-13T07:29:40;4.47;;;1.33;;
47758;SDS011;33520;55.122;35.582;2022-10-13T07:32:06;1.42;;;0.80;;
47758;SDS011;33520;55.122;35.582;2022-10-13T07:34:32;2.88;;;0.80;;
47758;SDS011;33520;55.122;35.582;2022-10-13T07:36:59;1.73;;;0.90;;
47758;SDS011;33520;55.122;35.582;2022-10-13T07:39:25;1.55;;;0.70;;
47758;SDS011;33520;55.122;35.582;2022-10-13T07:41:51;1.58;;;1.10;;
47758;SDS011;33520;55.122;35.582;2022-10-13T07:44:18;0.93;;;0.55;;
47758;SDS011;33520;55.122;35.582;2022-10-13T07:46:44;1.25;;;0.80;;
47758;SDS011;33520;55.122;35.582;2022-10-13T07:49:10;1.13;;;0.70;;
47758;SDS011;33520;55.122;35.582;2022-10-13T07:51:36;0.98;;;0.73;;
47758;SDS011;33520;55.122;35.582;2022-10-13T07:54:02;2.97;;;0.80;;
47758;SDS011;33520;55.122;35.582;2022-10-13T07:56:28;1.30;;;0.85;;
47758;SDS011;33520;55.122;35.582;2022-10-13T07:58:55;1.38;;;0.68;;
47758;SDS011;33520;55.122;35.582;2022-10-13T08:01:22;1.50;;;0.73;;
47758;SDS011;33520;55.122;35.582;2022-10-13T08:03:48;1.98;;;0.80;;
47758;SDS011;33520;55.122;35.582;2022-10-13T08:06:17;1.45;;;0.90;;
47758;SDS011;33520;55.122;35.582;2022-10-13T08:08:43;1.42;;;0.70;;
47758;SDS011;33520;55.122;35.582;2022-10-13T08:11:11;1.05;;;0.80;;
47758;SDS011;33520;55.122;35.582;2022-10-13T08:13:39;2.30;;;0.90;;
47758;SDS011;33520;55.122;35.582;2022-10-13T08:16:19;1.55;;;0.43;;
47758;SDS011;33520;55.122;35.582;2022-10-13T08:18:46;1.42;;;0.70;;
47758;SDS011;33520;55.122;35.582;2022-10-13T08:21:13;2.03;;;0.82;;
47758;SDS011;33520;55.122;35.582;2022-10-13T08:23:42;0.75;;;0.70;;
47758;SDS011;33520;55.122;35.582;2022-10-13T08:26:15;1.05;;;0.75;;
47758;SDS011;33520;55.122;35.582;2022-10-13T08:28:44;1.88;;;0.80;;
47758;SDS011;33520;55.122;35.582;2022-10-13T08:31:10;3.47;;;0.98;;
47758;SDS011;33520;55.122;35.582;2022-10-13T08:36:04;1.15;;;0.80;;
47758;SDS011;33520;55.122;35.582;2022-10-13T08:38:31;3.78;;;0.80;;
47758;SDS011;33520;55.122;35.582;2022-10-13T08:40:57;1.55;;;0.70;;
47758;SDS011;33520;55.122;35.582;2022-10-13T08:43:23;0.52;;;0.50;;
47758;SDS011;33520;55.122;35.582;2022-10-13T08:45:51;2.20;;;0.77;;
47758;SDS011;33520;55.122;35.582;2022-10-13T08:48:23;0.90;;;0.63;;
47758;SDS011;33520;55.122;35.582;2022-10-13T08:50:54;1.75;;;0.60;;
47758;SDS011;33520;55.122;35.582;2022-10-13T08:53:38;1.95;;;0.68;;
47758;SDS011;33520;55.122;35.582;2022-10-13T08:56:12;1.48;;;0.70;;
47758;SDS011;33520;55.122;35.582;2022-10-13T08:58:42;1.25;;;0.70;;
47758;SDS011;33520;55.122;35.582;2022-10-13T09:03:52;0.90;;;0.75;;
47758;SDS011;33520;55.122;35.582;2022-10-13T09:08:57;0.60;;;0.60;;
47758;SDS011;33520;55.122;35.582;2022-10-13T09:11:26;1.00;;;0.80;;
47758;SDS011;33520;55.122;35.582;2022-10-13T09:13:55;0.88;;;0.60;;
47758;SDS011;33520;55.122;35.582;2022-10-13T09:16:26;1.10;;;0.63;;
47758;SDS011;33520;55.122;35.582;2022-10-13T09:19:07;0.77;;;0.55;;
47758;SDS011;33520;55.122;35.582;2022-10-13T09:21:43;1.20;;;0.80;;
47758;SDS011;33520;55.122;35.582;2022-10-13T09:24:14;1.20;;;0.63;;
47758;SDS011;33520;55.122;35.582;2022-10-13T09:26:42;1.90;;;0.77;;
47758;SDS011;33520;55.122;35.582;2022-10-13T09:29:14;0.98;;;0.60;;
47758;SDS011;33520;55.122;35.582;2022-10-13T09:31:45;0.82;;;0.60;;
47758;SDS011;33520;55.122;35.582;2022-10-13T09:34:13;1.90;;;0.60;;
47758;SDS011;33520;55.122;35.582;2022-10-13T09:37:03;0.60;;;0.50;;
47758;SDS011;33520;55.122;35.582;2022-10-13T09:39:30;1.77;;;0.60;;
47758;SDS011;33520;55.122;35.582;2022-10-13T09:45:01;1.92;;;1.15;;
47758;SDS011;33520;55.122;35.582;2022-10-13T09:47:39;5.47;;;0.98;;
47758;SDS011;33520;55.122;35.582;2022-10-13T09:50:16;2.38;;;0.88;;
47758;SDS011;33520;55.122;35.582;2022-10-13T09:52:44;2.08;;;0.88;;
47758;SDS011;33520;55.122;35.582;2022-10-13T10:01:02;1.00;;;0.80;;
47758;SDS011;33520;55.122;35.582;2022-10-13T10:03:33;1.00;;;0.70;;
47758;SDS011;33520;55.122;35.582;2022-10-13T10:06:02;3.22;;;0.95;;
47758;SDS011;33520;55.122;35.582;2022-10-13T10:08:32;3.60;;;0.70;;
47758;SDS011;33520;55.122;35.582;2022-10-13T10:11:08;1.13;;;0.52;;
47758;SDS011;33520;55.122;35.582;2022-10-13T10:13:36;2.40;;;0.77;;
47758;SDS011;33520;55.122;35.582;2022-10-13T10:16:23;0.95;;;0.57;;
47758;SDS011;33520;55.122;35.582;2022-10-13T10:19:00;1.30;;;0.60;;
47758;SDS011;33520;55.122;35.582;2022-10-13T10:24:21;1.52;;;0.85;;
47758;SDS011;33520;55.122;35.582;2022-10-13T10:27:02;1.92;;;0.70;;
47758;SDS011;33520;55.122;35.582;2022-10-13T10:29:43;2.13;;;0.70;;
47758;SDS011;33520;55.122;35.582;2022-10-13T10:37:27;1.95;;;1.00;;
47758;SDS011;33520;55.122;35.582;2022-10-13T10:42:43;1.10;;;0.47;;
47758;SDS011;33520;55.122;35.582;2022-10-13T10:45:26;0.57;;;0.45;;
47758;SDS011;33520;55.122;35.582;2022-10-13T10:47:56;0.98;;;0.60;;
47758;SDS011;33520;55.122;35.582;2022-10-13T10:50:26;1.77;;;0.63;;
47758;SDS011;33520;55.122;35.582;2022-10-13T10:53:06;0.77;;;0.40;;
47758;SDS011;33520;55.122;35.582;2022-10-13T10:55:44;1.10;;;0.40;;
47758;SDS011;33520;55.122;35.582;2022-10-13T10:58:38;2.45;;;0.57;;
47758;SDS011;33520;55.122;35.582;2022-10-13T11:01:24;0.98;;;0.68;;
47758;SDS011;33520;55.122;35.582;2022-10-13T11:06:33;1.77;;;0.88;;
47758;SDS011;33520;55.122;35.582;2022-10-13T11:09:02;0.82;;;0.60;;
47758;SDS011;33520;55.122;35.582;2022-10-13T11:11:30;0.50;;;0.40;;
47758;SDS011;33520;55.122;35.582;2022-10-13T11:13:58;0.95;;;0.50;;
47758;SDS011;33520;55.122;35.582;2022-10-13T11:16:28;1.38;;;0.52;;
47758;SDS011;33520;55.122;35.582;2022-10-13T11:33:52;0.45;;;0.40;;
47758;SDS011;33520;55.122;35.582;2022-10-13T11:36:26;2.95;;;0.57;;
47758;SDS011;33520;55.122;35.582;2022-10-13T11:47:37;1.98;;;0.40;;
47758;SDS011;33520;55.122;35.582;2022-10-13T11:50:32;0.60;;;0.50;;
47758;SDS011;33520;55.122;35.582;2022-10-13T11:56:20;0.70;;;0.40;;
47758;SDS011;33520;55.122;35.582;2022-10-13T11:58:57;0.75;;;0.50;;
47758;SDS011;33520;55.122;35.582;2022-10-13T12:01:23;1.05;;;0.55;;
47758;SDS011;33520;55.122;35.582;2022-10-13T12:03:49;1.25;;;0.73;;
47758;SDS011;33520;55.122;35.582;2022-10-13T12:08:56;1.92;;;0.60;;
47758;SDS011;33520;55.122;35.582;2022-10-13T12:11:24;0.88;;;0.75;;
47758;SDS011;33520;55.122;35.582;2022-10-13T12:13:52;2.15;;;0.55;;
47758;SDS011;33520;55.122;35.582;2022-10-13T12:16:19;0.80;;;0.38;;
47758;SDS011;33520;55.122;35.582;2022-10-13T12:18:48;0.80;;;0.47;;
47758;SDS011;33520;55.122;35.582;2022-10-13T12:23:45;0.40;;;0.40;;
47758;SDS011;33520;55.122;35.582;2022-10-13T12:26:16;1.95;;;0.50;;
47758;SDS011;33520;55.122;35.582;2022-10-13T12:28:48;2.28;;;0.80;;
47758;SDS011;33520;55.122;35.582;2022-10-13T12:31:20;1.27;;;0.50;;
47758;SDS011;33520;55.122;35.582;2022-10-13T12:33:51;0.55;;;0.40;;
47758;SDS011;33520;55.122;35.582;2022-10-13T12:36:30;1.02;;;0.57;;
47758;SDS011;33520;55.122;35.582;2022-10-13T12:39:05;0.85;;;0.38;;
47758;SDS011;33520;55.122;35.582;2022-10-13T12:44:02;0.93;;;0.60;;
47758;SDS011;33520;55.122;35.582;2022-10-13T12:46:49;0.93;;;0.38;;
47758;SDS011;33520;55.122;35.582;2022-10-13T12:49:22;2.13;;;0.50;;
47758;SDS011;33520;55.122;35.582;2022-10-13T12:54:50;0.52;;;0.35;;
47758;SDS011;33520;55.122;35.582;2022-10-13T12:57:25;1.52;;;0.57;;
47758;SDS011;33520;55.122;35.582;2022-10-13T13:02:55;0.80;;;0.50;;
47758;SDS011;33520;55.122;35.582;2022-10-13T13:08:03;1.08;;;0.50;;
47758;SDS011;33520;55.122;35.582;2022-10-13T13:10:55;0.38;;;0.38;;
47758;SDS011;33520;55.122;35.582;2022-10-13T13:15:48;0.90;;;0.47;;
47758;SDS011;33520;55.122;35.582;2022-10-13T13:21:03;2.72;;;0.50;;
47758;SDS011;33520;55.122;35.582;2022-10-13T13:23:30;1.17;;;0.55;;
47758;SDS011;33520;55.122;35.582;2022-10-13T13:26:04;0.63;;;0.30;;
47758;SDS011;33520;55.122;35.582;2022-10-13T13:28:35;1.05;;;0.60;;
47758;SDS011;33520;55.122;35.582;2022-10-13T13:31:02;2.08;;;0.60;;
47758;SDS011;33520;55.122;35.582;2022-10-13T13:35:57;1.13;;;0.70;;
47758;SDS011;33520;55.122;35.582;2022-10-13T13:38:23;2.42;;;0.70;;
47758;SDS011;33520;55.122;35.582;2022-10-13T13:40:50;3.47;;;1.15;;
47758;SDS011;33520;55.122;35.582;2022-10-13T13:43:16;1.42;;;0.80;;
47758;SDS011;33520;55.122;35.582;2022-10-13T13:45:42;1.67;;;0.63;;
47758;SDS011;33520;55.122;35.582;2022-10-13T13:53:03;0.65;;;0.50;;
47758;SDS011;33520;55.122;35.582;2022-10-13T13:55:30;0.63;;;0.35;;
47758;SDS011;33520;55.122;35.582;2022-10-13T13:57:56;1.55;;;0.32;;
47758;SDS011;33520;55.122;35.582;2022-10-13T14:00:23;0.47;;;0.35;;
47758;SDS011;33520;55.122;35.582;2022-10-13T14:02:56;1.13;;;0.60;;
47758;SDS011;33520;55.122;35.582;2022-10-13T14:05:23;1.23;;;0.68;;
47758;SDS011;33520;55.122;35.582;2022-10-13T14:07:51;0.68;;;0.40;;
47758;SDS011;33520;55.122;35.582;2022-10-13T14:10:18;2.05;;;0.52;;
47758;SDS011;33520;55.122;35.582;2022-10-13T14:12:44;2.72;;;0.77;;
47758;SDS011;33520;55.122;35.582;2022-10-13T14:15:11;0.52;;;0.50;;
47758;SDS011;33520;55.122;35.582;2022-10-13T14:17:37;2.20;;;0.50;;
47758;SDS011;33520;55.122;35.582;2022-10-13T14:20:03;0.85;;;0.50;;
